sensor_id;sensor_type;location;lat;lon;timestamp;P1;durP1;ratioP1;P2;durP2;ratioP2
25962;SDS011;13760;52.588;13.406;2023-06-14T00:00:30;5.00;;;2.72;;
25962;SDS011;13760;52.588;13.406;2023-06-14T00:02:56;4.85;;;2.85;;
25962;SDS011;13760;52.588;13.406;2023-06-14T00:05:23;3.45;;;2.30;;
25962;SDS011;13760;52.588;13.406;2023-06-14T00:07:49;4.00;;;2.58;;
25962;SDS011;13760;52.588;13.406;2023-06-14T00:10:18;5.18;;;2.58;;
25962;SDS011;13760;52.588;13.406;2023-06-14T00:12:43;3.13;;;2.55;;
25962;SDS011;13760;52.588;13.406;2023-06-14T00:15:09;4.15;;;2.80;;
25962;SDS011;13760;52.588;13.406;2023-06-14T00:17:35;3.03;;;2.35;;
25962;SDS011;13760;52.588;13.406;2023-06-14T00:20:02;6.78;;;2.75;;
25962;SDS011;13760;52.588;13.406;2023-06-14T00:22:30;7.80;;;2.95;;
25962;SDS011;13760;52.588;13.406;2023-06-14T00:24:57;4.75;;;2.40;;
25962;SDS011;13760;52.588;13.406;2023-06-14T00:27:23;5.28;;;2.78;;
25962;SDS011;13760;52.588;13.406;2023-06-14T00:29:49;3.90;;;2.63;;
25962;SDS011;13760;52.588;13.406;2023-06-14T00:32:15;4.50;;;2.83;;
25962;SDS011;13760;52.588;13.406;2023-06-14T00:34:41;5.65;;;2.92;;
25962;SDS011;13760;52.588;13.406;2023-06-14T00:37:06;4.30;;;2.83;;
25962;SDS011;13760;52.588;13.406;2023-06-14T00:39:32;2.90;;;2.60;;
25962;SDS011;13760;52.588;13.406;2023-06-14T00:41:57;4.43;;;2.40;;
25962;SDS011;13760;52.588;13.406;2023-06-14T00:44:24;7.43;;;3.00;;
25962;SDS011;13760;52.588;13.406;2023-06-14T00:46:49;3.30;;;2.63;;
25962;SDS011;13760;52.588;13.406;2023-06-14T00:49:15;4.07;;;3.00;;
25962;SDS011;13760;52.588;13.406;2023-06-14T00:51:42;6.43;;;3.20;;
25962;SDS011;13760;52.588;13.406;2023-06-14T00:54:08;3.28;;;2.90;;
25962;SDS011;13760;52.588;13.406;2023-06-14T00:56:37;4.40;;;2.80;;
25962;SDS011;13760;52.588;13.406;2023-06-14T00:59:04;4.32;;;3.22;;
25962;SDS011;13760;52.588;13.406;2023-06-14T01:01:30;6.55;;;3.30;;
25962;SDS011;13760;52.588;13.406;2023-06-14T01:03:59;5.43;;;3.22;;
25962;SDS011;13760;52.588;13.406;2023-06-14T01:06:36;5.22;;;3.42;;
25962;SDS011;13760;52.588;13.406;2023-06-14T01:09:47;7.18;;;3.17;;
25962;SDS011;13760;52.588;13.406;2023-06-14T01:12:37;9.32;;;3.35;;
25962;SDS011;13760;52.588;13.406;2023-06-14T01:15:23;4.97;;;2.90;;
25962;SDS011;13760;52.588;13.406;2023-06-14T01:17:49;5.97;;;3.60;;
25962;SDS011;13760;52.588;13.406;2023-06-14T01:20:16;4.85;;;3.20;;
25962;SDS011;13760;52.588;13.406;2023-06-14T01:22:51;5.15;;;3.20;;
25962;SDS011;13760;52.588;13.406;2023-06-14T01:25:21;3.20;;;2.78;;
25962;SDS011;13760;52.588;13.406;2023-06-14T01:27:48;4.70;;;2.97;;
25962;SDS011;13760;52.588;13.406;2023-06-14T01:30:20;3.75;;;3.35;;
25962;SDS011;13760;52.588;13.406;2023-06-14T01:32:47;4.90;;;3.45;;
25962;SDS011;13760;52.588;13.406;2023-06-14T01:35:15;6.07;;;2.83;;
25962;SDS011;13760;52.588;13.406;2023-06-14T01:37:41;7.50;;;3.60;;
25962;SDS011;13760;52.588;13.406;2023-06-14T01:40:08;5.43;;;3.30;;
25962;SDS011;13760;52.588;13.406;2023-06-14T01:42:35;6.75;;;3.25;;
25962;SDS011;13760;52.588;13.406;2023-06-14T01:45:06;4.88;;;3.67;;
25962;SDS011;13760;52.588;13.406;2023-06-14T01:47:36;5.28;;;3.38;;
25962;SDS011;13760;52.588;13.406;2023-06-14T01:50:02;4.10;;;3.03;;
25962;SDS011;13760;52.588;13.406;2023-06-14T01:52:29;7.90;;;3.65;;
25962;SDS011;13760;52.588;13.406;2023-06-14T01:54:54;7.88;;;3.70;;
25962;SDS011;13760;52.588;13.406;2023-06-14T01:57:20;6.20;;;3.13;;
25962;SDS011;13760;52.588;13.406;2023-06-14T01:59:47;6.25;;;3.28;;
25962;SDS011;13760;52.588;13.406;2023-06-14T02:02:13;6.07;;;3.63;;
25962;SDS011;13760;52.588;13.406;2023-06-14T02:04:40;4.30;;;3.42;;
25962;SDS011;13760;52.588;13.406;2023-06-14T02:07:08;4.38;;;3.40;;
25962;SDS011;13760;52.588;13.406;2023-06-14T02:09:34;9.23;;;3.88;;
25962;SDS011;13760;52.588;13.406;2023-06-14T02:12:00;5.75;;;3.47;;
25962;SDS011;13760;52.588;13.406;2023-06-14T02:14:26;5.85;;;3.88;;
25962;SDS011;13760;52.588;13.406;2023-06-14T02:16:52;5.60;;;4.18;;
25962;SDS011;13760;52.588;13.406;2023-06-14T02:19:18;9.02;;;3.83;;
25962;SDS011;13760;52.588;13.406;2023-06-14T02:21:44;6.97;;;3.97;;
25962;SDS011;13760;52.588;13.406;2023-06-14T02:24:10;5.63;;;3.85;;
25962;SDS011;13760;52.588;13.406;2023-06-14T02:26:38;7.53;;;3.95;;
25962;SDS011;13760;52.588;13.406;2023-06-14T02:29:07;7.20;;;4.10;;
25962;SDS011;13760;52.588;13.406;2023-06-14T02:31:37;4.85;;;4.10;;
25962;SDS011;13760;52.588;13.406;2023-06-14T02:34:03;8.85;;;4.15;;
25962;SDS011;13760;52.588;13.406;2023-06-14T02:36:29;5.65;;;4.20;;
25962;SDS011;13760;52.588;13.406;2023-06-14T02:38:55;5.05;;;4.07;;
25962;SDS011;13760;52.588;13.406;2023-06-14T02:41:22;5.78;;;4.13;;
25962;SDS011;13760;52.588;13.406;2023-06-14T02:43:49;5.53;;;4.20;;
25962;SDS011;13760;52.588;13.406;2023-06-14T02:46:14;7.50;;;4.88;;
25962;SDS011;13760;52.588;13.406;2023-06-14T02:48:40;7.53;;;4.82;;
25962;SDS011;13760;52.588;13.406;2023-06-14T02:51:06;5.53;;;4.30;;
25962;SDS011;13760;52.588;13.406;2023-06-14T02:53:33;9.27;;;4.18;;
25962;SDS011;13760;52.588;13.406;2023-06-14T02:55:59;4.68;;;3.95;;
25962;SDS011;13760;52.588;13.406;2023-06-14T02:58:24;8.73;;;4.22;;
25962;SDS011;13760;52.588;13.406;2023-06-14T03:00:50;5.05;;;4.07;;
25962;SDS011;13760;52.588;13.406;2023-06-14T03:03:17;6.20;;;3.75;;
25962;SDS011;13760;52.588;13.406;2023-06-14T03:05:44;7.72;;;4.43;;
25962;SDS011;13760;52.588;13.406;2023-06-14T03:08:12;5.78;;;4.57;;
25962;SDS011;13760;52.588;13.406;2023-06-14T03:10:47;7.70;;;4.75;;
25962;SDS011;13760;52.588;13.406;2023-06-14T03:13:14;9.32;;;4.38;;
25962;SDS011;13760;52.588;13.406;2023-06-14T03:15:41;8.95;;;4.90;;
25962;SDS011;13760;52.588;13.406;2023-06-14T03:18:07;10.60;;;5.05;;
25962;SDS011;13760;52.588;13.406;2023-06-14T03:20:34;8.05;;;4.80;;
25962;SDS011;13760;52.588;13.406;2023-06-14T03:23:02;7.45;;;4.32;;
25962;SDS011;13760;52.588;13.406;2023-06-14T03:25:29;8.30;;;4.50;;
25962;SDS011;13760;52.588;13.406;2023-06-14T03:27:56;8.77;;;5.05;;
25962;SDS011;13760;52.588;13.406;2023-06-14T03:30:21;7.50;;;4.32;;
25962;SDS011;13760;52.588;13.406;2023-06-14T03:32:47;10.68;;;4.65;;
25962;SDS011;13760;52.588;13.406;2023-06-14T03:35:12;7.15;;;4.47;;
25962;SDS011;13760;52.588;13.406;2023-06-14T03:37:42;8.15;;;4.65;;
25962;SDS011;13760;52.588;13.406;2023-06-14T03:40:09;7.82;;;4.38;;
25962;SDS011;13760;52.588;13.406;2023-06-14T03:42:36;7.55;;;4.93;;
25962;SDS011;13760;52.588;13.406;2023-06-14T03:45:01;7.32;;;5.05;;
25962;SDS011;13760;52.588;13.406;2023-06-14T03:47:27;7.18;;;4.60;;
25962;SDS011;13760;52.588;13.406;2023-06-14T03:49:53;6.47;;;5.00;;
25962;SDS011;13760;52.588;13.406;2023-06-14T03:52:18;11.00;;;4.93;;
25962;SDS011;13760;52.588;13.406;2023-06-14T03:54:44;9.15;;;5.30;;
25962;SDS011;13760;52.588;13.406;2023-06-14T03:57:09;6.85;;;4.68;;
25962;SDS011;13760;52.588;13.406;2023-06-14T03:59:35;7.93;;;5.28;;
25962;SDS011;13760;52.588;13.406;2023-06-14T04:02:01;9.38;;;5.20;;
25962;SDS011;13760;52.588;13.406;2023-06-14T04:04:27;13.35;;;5.40;;
25962;SDS011;13760;52.588;13.406;2023-06-14T04:06:55;9.02;;;5.60;;
25962;SDS011;13760;52.588;13.406;2023-06-14T04:09:25;8.60;;;5.88;;
25962;SDS011;13760;52.588;13.406;2023-06-14T04:11:54;9.82;;;5.97;;
25962;SDS011;13760;52.588;13.406;2023-06-14T04:14:20;6.78;;;5.55;;
25962;SDS011;13760;52.588;13.406;2023-06-14T04:16:46;13.57;;;5.80;;
25962;SDS011;13760;52.588;13.406;2023-06-14T04:19:13;9.40;;;6.03;;
25962;SDS011;13760;52.588;13.406;2023-06-14T04:21:39;10.48;;;5.55;;
25962;SDS011;13760;52.588;13.406;2023-06-14T04:24:04;12.65;;;6.65;;
25962;SDS011;13760;52.588;13.406;2023-06-14T04:26:30;8.93;;;6.47;;
25962;SDS011;13760;52.588;13.406;2023-06-14T04:29:07;9.45;;;5.78;;
25962;SDS011;13760;52.588;13.406;2023-06-14T04:31:47;9.13;;;6.07;;
25962;SDS011;13760;52.588;13.406;2023-06-14T04:34:13;9.20;;;6.00;;
25962;SDS011;13760;52.588;13.406;2023-06-14T04:36:40;6.55;;;5.78;;
25962;SDS011;13760;52.588;13.406;2023-06-14T04:39:16;9.20;;;6.07;;
25962;SDS011;13760;52.588;13.406;2023-06-14T04:41:42;10.00;;;6.30;;
25962;SDS011;13760;52.588;13.406;2023-06-14T04:44:09;8.43;;;6.20;;
25962;SDS011;13760;52.588;13.406;2023-06-14T04:46:34;13.02;;;6.25;;
25962;SDS011;13760;52.588;13.406;2023-06-14T04:49:09;14.50;;;6.18;;
25962;SDS011;13760;52.588;13.406;2023-06-14T04:51:35;9.13;;;6.50;;
25962;SDS011;13760;52.588;13.406;2023-06-14T04:54:01;11.50;;;6.80;;
25962;SDS011;13760;52.588;13.406;2023-06-14T04:56:28;11.68;;;5.72;;
25962;SDS011;13760;52.588;13.406;2023-06-14T04:58:54;10.55;;;5.80;;
25962;SDS011;13760;52.588;13.406;2023-06-14T05:01:21;9.23;;;6.00;;
25962;SDS011;13760;52.588;13.406;2023-06-14T05:03:48;12.27;;;6.38;;
25962;SDS011;13760;52.588;13.406;2023-06-14T05:06:14;9.65;;;6.72;;
25962;SDS011;13760;52.588;13.406;2023-06-14T05:08:40;9.77;;;6.88;;
25962;SDS011;13760;52.588;13.406;2023-06-14T05:11:06;11.48;;;7.03;;
25962;SDS011;13760;52.588;13.406;2023-06-14T05:13:31;7.88;;;6.70;;
25962;SDS011;13760;52.588;13.406;2023-06-14T05:15:57;15.75;;;6.30;;
25962;SDS011;13760;52.588;13.406;2023-06-14T05:18:24;10.63;;;6.90;;
25962;SDS011;13760;52.588;13.406;2023-06-14T05:20:50;11.85;;;6.68;;
25962;SDS011;13760;52.588;13.406;2023-06-14T05:23:16;13.15;;;7.22;;
25962;SDS011;13760;52.588;13.406;2023-06-14T05:25:44;9.80;;;6.55;;
25962;SDS011;13760;52.588;13.406;2023-06-14T05:28:10;12.23;;;6.75;;
25962;SDS011;13760;52.588;13.406;2023-06-14T05:30:37;15.15;;;7.13;;
25962;SDS011;13760;52.588;13.406;2023-06-14T05:33:03;15.93;;;6.85;;
25962;SDS011;13760;52.588;13.406;2023-06-14T05:35:29;11.45;;;6.30;;
25962;SDS011;13760;52.588;13.406;2023-06-14T05:37:54;9.02;;;6.45;;
25962;SDS011;13760;52.588;13.406;2023-06-14T05:40:20;13.85;;;6.35;;
25962;SDS011;13760;52.588;13.406;2023-06-14T05:42:45;8.25;;;6.20;;
25962;SDS011;13760;52.588;13.406;2023-06-14T05:45:11;12.90;;;5.72;;
25962;SDS011;13760;52.588;13.406;2023-06-14T05:47:37;9.45;;;5.70;;
25962;SDS011;13760;52.588;13.406;2023-06-14T05:50:02;9.93;;;5.40;;
25962;SDS011;13760;52.588;13.406;2023-06-14T05:52:28;15.30;;;6.18;;
25962;SDS011;13760;52.588;13.406;2023-06-14T05:54:54;10.63;;;6.38;;
25962;SDS011;13760;52.588;13.406;2023-06-14T05:57:20;9.07;;;5.45;;
25962;SDS011;13760;52.588;13.406;2023-06-14T05:59:46;15.75;;;6.10;;
25962;SDS011;13760;52.588;13.406;2023-06-14T06:02:11;9.95;;;5.22;;
25962;SDS011;13760;52.588;13.406;2023-06-14T06:04:37;10.68;;;5.93;;
25962;SDS011;13760;52.588;13.406;2023-06-14T06:07:02;12.68;;;5.38;;
25962;SDS011;13760;52.588;13.406;2023-06-14T06:09:28;10.75;;;6.00;;
25962;SDS011;13760;52.588;13.406;2023-06-14T06:11:54;12.57;;;6.32;;
25962;SDS011;13760;52.588;13.406;2023-06-14T06:14:20;9.00;;;5.97;;
25962;SDS011;13760;52.588;13.406;2023-06-14T06:16:45;11.18;;;5.88;;
25962;SDS011;13760;52.588;13.406;2023-06-14T06:19:11;10.20;;;5.90;;
25962;SDS011;13760;52.588;13.406;2023-06-14T06:21:37;13.50;;;6.00;;
25962;SDS011;13760;52.588;13.406;2023-06-14T06:24:02;12.63;;;6.18;;
25962;SDS011;13760;52.588;13.406;2023-06-14T06:26:30;10.27;;;5.70;;
25962;SDS011;13760;52.588;13.406;2023-06-14T06:28:56;9.23;;;5.28;;
25962;SDS011;13760;52.588;13.406;2023-06-14T06:31:22;12.40;;;5.93;;
25962;SDS011;13760;52.588;13.406;2023-06-14T06:33:48;15.25;;;6.22;;
25962;SDS011;13760;52.588;13.406;2023-06-14T06:36:14;12.52;;;5.53;;
25962;SDS011;13760;52.588;13.406;2023-06-14T06:38:39;10.15;;;5.45;;
25962;SDS011;13760;52.588;13.406;2023-06-14T06:41:05;13.57;;;6.13;;
25962;SDS011;13760;52.588;13.406;2023-06-14T06:43:31;14.02;;;5.80;;
25962;SDS011;13760;52.588;13.406;2023-06-14T06:45:56;16.40;;;5.80;;
25962;SDS011;13760;52.588;13.406;2023-06-14T06:48:22;10.00;;;6.05;;
25962;SDS011;13760;52.588;13.406;2023-06-14T06:50:47;11.18;;;6.53;;
25962;SDS011;13760;52.588;13.406;2023-06-14T06:53:13;11.93;;;5.60;;
25962;SDS011;13760;52.588;13.406;2023-06-14T06:55:38;11.82;;;5.30;;
25962;SDS011;13760;52.588;13.406;2023-06-14T06:58:04;13.35;;;5.93;;
25962;SDS011;13760;52.588;13.406;2023-06-14T07:00:30;15.65;;;6.05;;
25962;SDS011;13760;52.588;13.406;2023-06-14T07:02:56;10.45;;;5.35;;
25962;SDS011;13760;52.588;13.406;2023-06-14T07:05:22;10.30;;;4.82;;
25962;SDS011;13760;52.588;13.406;2023-06-14T07:07:48;9.85;;;5.00;;
25962;SDS011;13760;52.588;13.406;2023-06-14T07:10:13;13.45;;;5.03;;
25962;SDS011;13760;52.588;13.406;2023-06-14T07:12:39;10.93;;;5.20;;
25962;SDS011;13760;52.588;13.406;2023-06-14T07:15:08;9.32;;;5.70;;
25962;SDS011;13760;52.588;13.406;2023-06-14T07:17:34;9.38;;;5.70;;
25962;SDS011;13760;52.588;13.406;2023-06-14T07:20:00;9.88;;;5.40;;
25962;SDS011;13760;52.588;13.406;2023-06-14T07:22:40;9.70;;;5.57;;
25962;SDS011;13760;52.588;13.406;2023-06-14T07:25:06;11.50;;;5.20;;
25962;SDS011;13760;52.588;13.406;2023-06-14T07:27:33;12.18;;;5.40;;
25962;SDS011;13760;52.588;13.406;2023-06-14T07:29:59;8.77;;;4.63;;
25962;SDS011;13760;52.588;13.406;2023-06-14T07:32:24;12.77;;;4.97;;
25962;SDS011;13760;52.588;13.406;2023-06-14T07:34:50;12.65;;;5.07;;
25962;SDS011;13760;52.588;13.406;2023-06-14T07:37:15;11.30;;;5.18;;
25962;SDS011;13760;52.588;13.406;2023-06-14T07:39:41;10.30;;;4.63;;
25962;SDS011;13760;52.588;13.406;2023-06-14T07:42:06;12.40;;;5.65;;
25962;SDS011;13760;52.588;13.406;2023-06-14T07:44:32;17.05;;;5.78;;
25962;SDS011;13760;52.588;13.406;2023-06-14T07:46:57;8.77;;;5.05;;
25962;SDS011;13760;52.588;13.406;2023-06-14T07:49:24;8.38;;;5.10;;
25962;SDS011;13760;52.588;13.406;2023-06-14T07:51:50;15.40;;;5.10;;
25962;SDS011;13760;52.588;13.406;2023-06-14T07:54:16;15.13;;;5.03;;
25962;SDS011;13760;52.588;13.406;2023-06-14T07:56:42;9.85;;;5.35;;
25962;SDS011;13760;52.588;13.406;2023-06-14T07:59:08;15.18;;;5.13;;
25962;SDS011;13760;52.588;13.406;2023-06-14T08:01:34;10.93;;;5.10;;
25962;SDS011;13760;52.588;13.406;2023-06-14T08:03:59;7.65;;;5.20;;
25962;SDS011;13760;52.588;13.406;2023-06-14T08:06:25;9.00;;;4.50;;
25962;SDS011;13760;52.588;13.406;2023-06-14T08:08:51;7.57;;;5.35;;
25962;SDS011;13760;52.588;13.406;2023-06-14T08:11:17;12.07;;;4.93;;
25962;SDS011;13760;52.588;13.406;2023-06-14T08:13:42;8.70;;;5.38;;
25962;SDS011;13760;52.588;13.406;2023-06-14T08:16:08;11.15;;;5.45;;
25962;SDS011;13760;52.588;13.406;2023-06-14T08:18:34;12.05;;;4.60;;
25962;SDS011;13760;52.588;13.406;2023-06-14T08:20:59;10.52;;;5.30;;
25962;SDS011;13760;52.588;13.406;2023-06-14T08:23:25;11.18;;;4.82;;
25962;SDS011;13760;52.588;13.406;2023-06-14T08:25:50;8.32;;;4.95;;
25962;SDS011;13760;52.588;13.406;2023-06-14T08:28:16;10.85;;;4.85;;
25962;SDS011;13760;52.588;13.406;2023-06-14T08:30:42;8.07;;;4.20;;
25962;SDS011;13760;52.588;13.406;2023-06-14T08:33:07;8.77;;;4.68;;
25962;SDS011;13760;52.588;13.406;2023-06-14T08:35:33;8.15;;;4.85;;
25962;SDS011;13760;52.588;13.406;2023-06-14T08:38:01;9.23;;;3.95;;
25962;SDS011;13760;52.588;13.406;2023-06-14T08:40:27;8.77;;;4.07;;
25962;SDS011;13760;52.588;13.406;2023-06-14T08:42:55;13.43;;;4.05;;
25962;SDS011;13760;52.588;13.406;2023-06-14T08:45:21;15.90;;;3.40;;
25962;SDS011;13760;52.588;13.406;2023-06-14T08:47:48;7.55;;;3.42;;
25962;SDS011;13760;52.588;13.406;2023-06-14T08:50:18;12.25;;;3.75;;
25962;SDS011;13760;52.588;13.406;2023-06-14T08:52:46;13.18;;;3.50;;
25962;SDS011;13760;52.588;13.406;2023-06-14T08:55:17;13.88;;;4.63;;
25962;SDS011;13760;52.588;13.406;2023-06-14T08:57:44;11.38;;;4.28;;
25962;SDS011;13760;52.588;13.406;2023-06-14T09:00:12;15.63;;;4.45;;
25962;SDS011;13760;52.588;13.406;2023-06-14T09:02:38;10.52;;;4.18;;
25962;SDS011;13760;52.588;13.406;2023-06-14T09:05:09;9.07;;;4.33;;
25962;SDS011;13760;52.588;13.406;2023-06-14T09:07:43;7.22;;;4.05;;
25962;SDS011;13760;52.588;13.406;2023-06-14T09:10:10;10.88;;;4.07;;
25962;SDS011;13760;52.588;13.406;2023-06-14T09:12:38;8.13;;;4.03;;
25962;SDS011;13760;52.588;13.406;2023-06-14T09:15:04;6.60;;;3.78;;
25962;SDS011;13760;52.588;13.406;2023-06-14T09:17:37;8.30;;;4.07;;
25962;SDS011;13760;52.588;13.406;2023-06-14T09:20:04;7.28;;;4.13;;
25962;SDS011;13760;52.588;13.406;2023-06-14T09:22:38;12.75;;;3.80;;
25962;SDS011;13760;52.588;13.406;2023-06-14T09:25:04;6.68;;;4.10;;
25962;SDS011;13760;52.588;13.406;2023-06-14T09:27:30;5.55;;;3.70;;
25962;SDS011;13760;52.588;13.406;2023-06-14T09:29:57;12.93;;;4.03;;
25962;SDS011;13760;52.588;13.406;2023-06-14T09:32:22;8.70;;;3.88;;
25962;SDS011;13760;52.588;13.406;2023-06-14T09:34:48;7.93;;;4.00;;
25962;SDS011;13760;52.588;13.406;2023-06-14T09:37:27;9.93;;;3.92;;
25962;SDS011;13760;52.588;13.406;2023-06-14T09:39:54;11.20;;;4.07;;
25962;SDS011;13760;52.588;13.406;2023-06-14T09:42:20;8.27;;;3.90;;
25962;SDS011;13760;52.588;13.406;2023-06-14T09:44:49;12.27;;;3.65;;
25962;SDS011;13760;52.588;13.406;2023-06-14T09:47:16;7.93;;;4.00;;
25962;SDS011;13760;52.588;13.406;2023-06-14T09:49:42;11.27;;;4.32;;
25962;SDS011;13760;52.588;13.406;2023-06-14T09:52:20;12.80;;;4.30;;
25962;SDS011;13760;52.588;13.406;2023-06-14T09:54:47;12.43;;;4.50;;
25962;SDS011;13760;52.588;13.406;2023-06-14T09:57:16;11.20;;;4.28;;
25962;SDS011;13760;52.588;13.406;2023-06-14T09:59:48;10.98;;;4.47;;
25962;SDS011;13760;52.588;13.406;2023-06-14T10:02:22;12.90;;;4.32;;
25962;SDS011;13760;52.588;13.406;2023-06-14T10:05:00;11.02;;;4.28;;
25962;SDS011;13760;52.588;13.406;2023-06-14T10:07:32;13.07;;;4.35;;
25962;SDS011;13760;52.588;13.406;2023-06-14T10:10:00;8.80;;;4.10;;
25962;SDS011;13760;52.588;13.406;2023-06-14T10:12:26;12.50;;;4.95;;
25962;SDS011;13760;52.588;13.406;2023-06-14T10:14:52;11.93;;;3.90;;
25962;SDS011;13760;52.588;13.406;2023-06-14T10:17:20;9.50;;;3.80;;
25962;SDS011;13760;52.588;13.406;2023-06-14T10:22:32;7.72;;;4.43;;
25962;SDS011;13760;52.588;13.406;2023-06-14T10:25:12;12.40;;;4.28;;
25962;SDS011;13760;52.588;13.406;2023-06-14T10:27:50;7.65;;;4.10;;
25962;SDS011;13760;52.588;13.406;2023-06-14T10:30:16;13.00;;;4.22;;
25962;SDS011;13760;52.588;13.406;2023-06-14T10:35:30;9.75;;;4.25;;
25962;SDS011;13760;52.588;13.406;2023-06-14T10:38:05;7.25;;;3.85;;
25962;SDS011;13760;52.588;13.406;2023-06-14T10:40:32;7.78;;;4.57;;
25962;SDS011;13760;52.588;13.406;2023-06-14T10:42:59;12.57;;;4.40;;
25962;SDS011;13760;52.588;13.406;2023-06-14T10:45:24;10.45;;;4.82;;
25962;SDS011;13760;52.588;13.406;2023-06-14T10:47:50;9.23;;;4.10;;
25962;SDS011;13760;52.588;13.406;2023-06-14T10:50:17;14.65;;;4.78;;
25962;SDS011;13760;52.588;13.406;2023-06-14T10:52:53;10.13;;;4.70;;
25962;SDS011;13760;52.588;13.406;2023-06-14T10:55:19;6.03;;;4.10;;
25962;SDS011;13760;52.588;13.406;2023-06-14T10:57:48;8.73;;;4.00;;
25962;SDS011;13760;52.588;13.406;2023-06-14T11:00:27;10.25;;;4.45;;
25962;SDS011;13760;52.588;13.406;2023-06-14T11:03:11;11.98;;;4.68;;
25962;SDS011;13760;52.588;13.406;2023-06-14T11:08:20;11.38;;;3.85;;
25962;SDS011;13760;52.588;13.406;2023-06-14T11:11:10;8.45;;;3.95;;
25962;SDS011;13760;52.588;13.406;2023-06-14T11:13:38;9.90;;;3.55;;
25962;SDS011;13760;52.588;13.406;2023-06-14T11:16:10;9.50;;;3.83;;
25962;SDS011;13760;52.588;13.406;2023-06-14T11:18:40;10.25;;;4.30;;
25962;SDS011;13760;52.588;13.406;2023-06-14T11:21:06;5.57;;;3.65;;
25962;SDS011;13760;52.588;13.406;2023-06-14T11:23:32;7.07;;;3.53;;
25962;SDS011;13760;52.588;13.406;2023-06-14T11:25:57;8.98;;;3.78;;
25962;SDS011;13760;52.588;13.406;2023-06-14T11:28:23;6.05;;;3.63;;
25962;SDS011;13760;52.588;13.406;2023-06-14T11:30:49;8.40;;;3.70;;
25962;SDS011;13760;52.588;13.406;2023-06-14T11:33:24;7.68;;;4.18;;
25962;SDS011;13760;52.588;13.406;2023-06-14T11:35:50;10.13;;;4.00;;
25962;SDS011;13760;52.588;13.406;2023-06-14T11:38:16;13.13;;;3.80;;
25962;SDS011;13760;52.588;13.406;2023-06-14T11:40:42;9.77;;;4.05;;
25962;SDS011;13760;52.588;13.406;2023-06-14T11:43:07;8.95;;;3.45;;
25962;SDS011;13760;52.588;13.406;2023-06-14T11:45:33;5.88;;;3.72;;
25962;SDS011;13760;52.588;13.406;2023-06-14T11:47:58;9.00;;;3.72;;
25962;SDS011;13760;52.588;13.406;2023-06-14T11:50:24;7.60;;;4.20;;
25962;SDS011;13760;52.588;13.406;2023-06-14T11:52:54;8.52;;;4.05;;
25962;SDS011;13760;52.588;13.406;2023-06-14T11:55:21;11.85;;;3.80;;
25962;SDS011;13760;52.588;13.406;2023-06-14T11:57:47;12.32;;;3.78;;
25962;SDS011;13760;52.588;13.406;2023-06-14T12:00:13;14.93;;;3.28;;
25962;SDS011;13760;52.588;13.406;2023-06-14T12:02:40;7.22;;;3.85;;
25962;SDS011;13760;52.588;13.406;2023-06-14T12:05:06;9.32;;;4.13;;
25962;SDS011;13760;52.588;13.406;2023-06-14T12:07:36;10.40;;;4.00;;
25962;SDS011;13760;52.588;13.406;2023-06-14T12:12:28;9.93;;;3.97;;
25962;SDS011;13760;52.588;13.406;2023-06-14T12:14:56;9.23;;;3.50;;
25962;SDS011;13760;52.588;13.406;2023-06-14T12:17:22;8.82;;;3.60;;
25962;SDS011;13760;52.588;13.406;2023-06-14T12:19:49;13.20;;;3.92;;
25962;SDS011;13760;52.588;13.406;2023-06-14T12:22:15;8.07;;;3.47;;
25962;SDS011;13760;52.588;13.406;2023-06-14T12:24:45;6.97;;;3.38;;
25962;SDS011;13760;52.588;13.406;2023-06-14T12:27:11;8.05;;;3.53;;
25962;SDS011;13760;52.588;13.406;2023-06-14T12:29:40;7.28;;;3.35;;
25962;SDS011;13760;52.588;13.406;2023-06-14T12:32:06;8.80;;;3.78;;
25962;SDS011;13760;52.588;13.406;2023-06-14T12:34:32;7.25;;;3.35;;
25962;SDS011;13760;52.588;13.406;2023-06-14T12:36:57;8.70;;;3.38;;
25962;SDS011;13760;52.588;13.406;2023-06-14T12:39:23;5.95;;;3.45;;
25962;SDS011;13760;52.588;13.406;2023-06-14T12:41:49;12.30;;;3.20;;
25962;SDS011;13760;52.588;13.406;2023-06-14T12:44:15;9.95;;;3.10;;
25962;SDS011;13760;52.588;13.406;2023-06-14T12:46:41;7.63;;;3.30;;
25962;SDS011;13760;52.588;13.406;2023-06-14T12:49:08;9.48;;;3.13;;
25962;SDS011;13760;52.588;13.406;2023-06-14T12:51:35;7.45;;;3.13;;
25962;SDS011;13760;52.588;13.406;2023-06-14T12:54:00;3.78;;;3.00;;
25962;SDS011;13760;52.588;13.406;2023-06-14T12:56:26;7.03;;;3.47;;
25962;SDS011;13760;52.588;13.406;2023-06-14T12:58:52;6.68;;;3.28;;
25962;SDS011;13760;52.588;13.406;2023-06-14T13:01:18;8.00;;;2.80;;
25962;SDS011;13760;52.588;13.406;2023-06-14T13:03:44;9.52;;;3.33;;
25962;SDS011;13760;52.588;13.406;2023-06-14T13:06:14;6.85;;;3.10;;
25962;SDS011;13760;52.588;13.406;2023-06-14T13:08:40;14.55;;;3.05;;
25962;SDS011;13760;52.588;13.406;2023-06-14T13:11:05;7.00;;;3.13;;
25962;SDS011;13760;52.588;13.406;2023-06-14T13:13:31;9.48;;;3.05;;
25962;SDS011;13760;52.588;13.406;2023-06-14T13:15:56;7.97;;;3.13;;
25962;SDS011;13760;52.588;13.406;2023-06-14T13:18:22;8.20;;;3.15;;
25962;SDS011;13760;52.588;13.406;2023-06-14T13:20:47;12.40;;;3.08;;
25962;SDS011;13760;52.588;13.406;2023-06-14T13:23:13;7.40;;;2.80;;
25962;SDS011;13760;52.588;13.406;2023-06-14T13:25:40;7.53;;;2.80;;
25962;SDS011;13760;52.588;13.406;2023-06-14T13:28:06;7.22;;;3.05;;
25962;SDS011;13760;52.588;13.406;2023-06-14T13:30:32;9.23;;;3.17;;
25962;SDS011;13760;52.588;13.406;2023-06-14T13:32:58;8.73;;;3.05;;
25962;SDS011;13760;52.588;13.406;2023-06-14T13:35:24;14.25;;;3.38;;
25962;SDS011;13760;52.588;13.406;2023-06-14T13:37:50;5.47;;;3.15;;
25962;SDS011;13760;52.588;13.406;2023-06-14T13:40:16;7.25;;;3.03;;
25962;SDS011;13760;52.588;13.406;2023-06-14T13:42:42;7.97;;;2.97;;
25962;SDS011;13760;52.588;13.406;2023-06-14T13:45:08;11.15;;;3.03;;
25962;SDS011;13760;52.588;13.406;2023-06-14T13:47:35;5.38;;;3.05;;
25962;SDS011;13760;52.588;13.406;2023-06-14T13:50:00;10.35;;;2.85;;
25962;SDS011;13760;52.588;13.406;2023-06-14T13:52:26;7.40;;;2.65;;
25962;SDS011;13760;52.588;13.406;2023-06-14T13:54:52;7.30;;;3.35;;
25962;SDS011;13760;52.588;13.406;2023-06-14T13:57:17;4.70;;;2.60;;
25962;SDS011;13760;52.588;13.406;2023-06-14T13:59:43;10.95;;;3.40;;
25962;SDS011;13760;52.588;13.406;2023-06-14T14:02:13;6.57;;;2.92;;
25962;SDS011;13760;52.588;13.406;2023-06-14T14:04:39;6.95;;;2.83;;
25962;SDS011;13760;52.588;13.406;2023-06-14T14:07:06;12.07;;;3.40;;
25962;SDS011;13760;52.588;13.406;2023-06-14T14:09:32;15.32;;;3.20;;
25962;SDS011;13760;52.588;13.406;2023-06-14T14:11:59;10.30;;;3.65;;
25962;SDS011;13760;52.588;13.406;2023-06-14T14:14:25;10.98;;;3.47;;
25962;SDS011;13760;52.588;13.406;2023-06-14T14:16:52;8.75;;;3.50;;
25962;SDS011;13760;52.588;13.406;2023-06-14T14:19:23;10.27;;;3.58;;
25962;SDS011;13760;52.588;13.406;2023-06-14T14:21:51;4.90;;;3.30;;
25962;SDS011;13760;52.588;13.406;2023-06-14T14:24:18;6.63;;;3.30;;
25962;SDS011;13760;52.588;13.406;2023-06-14T14:26:44;10.27;;;3.47;;
25962;SDS011;13760;52.588;13.406;2023-06-14T14:29:12;8.30;;;3.42;;
25962;SDS011;13760;52.588;13.406;2023-06-14T14:31:38;8.35;;;3.40;;
25962;SDS011;13760;52.588;13.406;2023-06-14T14:34:03;9.40;;;2.92;;
25962;SDS011;13760;52.588;13.406;2023-06-14T14:36:29;7.82;;;3.25;;
25962;SDS011;13760;52.588;13.406;2023-06-14T14:38:55;7.65;;;3.03;;
25962;SDS011;13760;52.588;13.406;2023-06-14T14:41:20;8.60;;;3.28;;